Time;durP1;ratioP1;P1;durP2;ratioP2;P2;SDS_P1;SDS_P2;PMS_P1;PMS_P2;Temp;Humidity;BMP_temperature;BMP_pressure;BME280_temperature;BME280_humidity;BME280_pressure;Samples;Min_cycle;Max_cycle;Signal;HPM_P1;HPM_P2
2021/03/02 00:01:42;;;;;;;;;;;21.50;32.80;;;;;;1530259;76;720;-54
2021/03/02 00:03:44;;;;;;;;;;;21.50;33.00;;;;;;1528330;76;746;-55
2021/03/02 00:05:47;;;;;;;;;;;21.50;32.80;;;;;;1532745;76;698;-56
2021/03/02 00:07:49;;;;;;;;;;;21.50;32.70;;;;;;1536841;76;1912;-54
2021/03/02 00:09:50;;;;;;;;;;;21.50;32.60;;;;;;1537305;76;1111;-55
2021/03/02 00:11:53;;;;;;;;;;;21.50;32.60;;;;;;1544168;76;780;-55
2021/03/02 00:13:54;;;;;;;;;;;21.50;32.60;;;;;;1538793;76;719;-54
2021/03/02 00:16:00;;;;;;;;;;;21.50;32.60;;;;;;1524394;76;739;-58
2021/03/02 00:18:02;;;;;;;;;;;21.50;32.60;;;;;;1531270;76;781;-58
2021/03/02 00:20:08;;;;;;;;;;;21.50;32.60;;;;;;1530383;76;1137;-58
2021/03/02 00:22:11;;;;;;;;;;;21.40;32.60;;;;;;1529948;76;707;-59
2021/03/02 00:24:14;;;;;;;;;;;21.50;32.70;;;;;;1531240;76;1080;-57
2021/03/02 00:26:18;;;;;;;;;;;21.50;32.70;;;;;;1531307;76;680;-55
2021/03/02 00:28:19;;;;;;;;;;;21.50;33.30;;;;;;1530632;76;1910;-57
2021/03/02 00:30:21;;;;;;;;;;;21.40;33.40;;;;;;1528238;76;1161;-54
2021/03/02 00:32:23;;;;;;;;;;;21.50;33.30;;;;;;1531067;76;744;-58
2021/03/02 00:34:25;;;;;;;;;;;21.50;33.30;;;;;;1531975;76;747;-59
2021/03/02 00:36:27;;;;;;;;;;;21.50;33.20;;;;;;1527317;76;744;-58
2021/03/02 00:38:29;;;;;;;;;;;21.50;33.20;;;;;;1533048;76;780;-58
2021/03/02 00:40:31;;;;;;;;;;;21.40;33.10;;;;;;1529828;76;1061;-58
2021/03/02 00:42:33;;;;;;;;;;;21.50;33.30;;;;;;1531764;76;692;-57
2021/03/02 00:44:35;;;;;;;;;;;21.50;33.10;;;;;;1534663;76;751;-56
2021/03/02 00:46:36;;;;;;;;;;;21.50;33.40;;;;;;1529675;76;806;-54
2021/03/02 00:48:38;;;;;;;;;;;21.40;33.20;;;;;;1529792;76;1937;-58
2021/03/02 00:50:40;;;;;;;;;;;21.40;33.20;;;;;;1529946;76;1093;-58
2021/03/02 00:52:42;;;;;;;;;;;21.40;33.10;;;;;;1532674;76;728;-58
2021/03/02 00:54:44;;;;;;;;;;;21.40;33.30;;;;;;1530587;76;800;-58
2021/03/02 00:56:46;;;;;;;;;;;21.40;33.20;;;;;;1525631;76;874;-57
2021/03/02 00:58:48;;;;;;;;;;;21.40;33.30;;;;;;1528976;76;806;-58
2021/03/02 01:00:49;;;;;;;;;;;21.40;33.10;;;;;;1528295;76;731;-57
2021/03/02 01:02:51;;;;;;;;;;;21.40;33.30;;;;;;1532143;76;774;-56
2021/03/02 01:04:53;;;;;;;;;;;21.40;33.40;;;;;;1527560;76;708;-58
2021/03/02 01:06:55;;;;;;;;;;;21.30;33.40;;;;;;1532039;76;1943;-58
2021/03/02 01:08:57;;;;;;;;;;;21.30;33.50;;;;;;1530413;76;1226;-57
2021/03/02 01:10:59;;;;;;;;;;;21.40;33.40;;;;;;1532672;76;793;-58
2021/03/02 01:13:01;;;;;;;;;;;21.40;33.50;;;;;;1534039;76;719;-57
2021/03/02 01:15:06;;;;;;;;;;;21.30;33.30;;;;;;1531202;76;637;-58
2021/03/02 01:17:08;;;;;;;;;;;21.30;33.40;;;;;;1529431;76;774;-58
2021/03/02 01:19:10;;;;;;;;;;;21.30;33.50;;;;;;1527253;76;1151;-58
2021/03/02 01:21:12;;;;;;;;;;;21.40;33.70;;;;;;1528912;76;729;-58
2021/03/02 01:23:14;;;;;;;;;;;21.30;33.60;;;;;;1533357;76;757;-58
2021/03/02 01:25:16;;;;;;;;;;;21.30;33.70;;;;;;1527853;76;715;-57
2021/03/02 01:27:18;;;;;;;;;;;21.40;33.50;;;;;;1534620;76;1932;-58
2021/03/02 01:29:20;;;;;;;;;;;21.40;33.70;;;;;;1532165;76;1176;-57
2021/03/02 01:31:21;;;;;;;;;;;21.40;33.60;;;;;;1531927;76;667;-57
2021/03/02 01:33:23;;;;;;;;;;;21.40;33.70;;;;;;1531959;76;748;-56
2021/03/02 01:35:25;;;;;;;;;;;21.40;33.90;;;;;;1529038;76;762;-58
2021/03/02 01:37:27;;;;;;;;;;;21.40;34.20;;;;;;1529096;76;741;-58
2021/03/02 01:39:29;;;;;;;;;;;21.40;34.30;;;;;;1530481;76;1204;-58
2021/03/02 01:41:31;;;;;;;;;;;21.50;34.50;;;;;;1531294;76;775;-58
2021/03/02 01:43:33;;;;;;;;;;;21.40;34.50;;;;;;1532490;76;775;-58
2021/03/02 01:45:36;;;;;;;;;;;21.40;34.40;;;;;;1527323;76;731;-58
2021/03/02 01:47:38;;;;;;;;;;;21.50;34.60;;;;;;1535254;75;1920;-58
2021/03/02 01:49:40;;;;;;;;;;;21.40;34.50;;;;;;1533492;76;1077;-58
2021/03/02 01:51:41;;;;;;;;;;;21.50;34.60;;;;;;1531247;76;942;-58
2021/03/02 01:53:43;;;;;;;;;;;21.40;34.50;;;;;;1530820;76;714;-58
2021/03/02 01:55:45;;;;;;;;;;;21.40;34.50;;;;;;1533327;76;727;-58
2021/03/02 01:57:47;;;;;;;;;;;21.50;34.50;;;;;;1528101;76;693;-57
2021/03/02 01:59:49;;;;;;;;;;;21.50;34.50;;;;;;1532859;76;1136;-55
2021/03/02 02:01:51;;;;;;;;;;;21.50;34.40;;;;;;1525674;76;785;-58
2021/03/02 02:03:54;;;;;;;;;;;21.50;34.40;;;;;;1529392;76;727;-57
2021/03/02 02:06:01;;;;;;;;;;;21.50;34.40;;;;;;1531393;76;775;-58
2021/03/02 02:08:03;;;;;;;;;;;21.50;34.40;;;;;;1529613;76;1948;-57
2021/03/02 02:10:06;;;;;;;;;;;21.50;34.40;;;;;;1532605;76;1129;-57
2021/03/02 02:12:08;;;;;;;;;;;21.50;34.30;;;;;;1530032;76;786;-57
2021/03/02 02:14:15;;;;;;;;;;;21.50;34.20;;;;;;1531401;76;733;-58
2021/03/02 02:16:17;;;;;;;;;;;21.50;34.10;;;;;;1531203;76;773;-58
2021/03/02 02:18:20;;;;;;;;;;;21.50;34.20;;;;;;1531978;76;709;-58
2021/03/02 02:20:29;;;;;;;;;;;21.50;34.10;;;;;;1529818;76;1153;-56
2021/03/02 02:22:51;;;;;;;;;;;21.60;34.10;;;;;;1527490;76;1653;-58
2021/03/02 02:25:11;;;;;;;;;;;21.50;34.10;;;;;;1528924;76;2001;-57
2021/03/02 02:27:13;;;;;;;;;;;21.50;34.10;;;;;;1529123;76;780;-59
2021/03/02 02:29:16;;;;;;;;;;;21.50;34.20;;;;;;1524383;76;1937;-57
2021/03/02 02:31:18;;;;;;;;;;;21.50;33.90;;;;;;1529475;76;745;-58
2021/03/02 02:33:20;;;;;;;;;;;21.50;34.00;;;;;;1530080;76;664;-57
2021/03/02 02:35:22;;;;;;;;;;;21.50;33.90;;;;;;1529778;76;777;-57
2021/03/02 02:37:25;;;;;;;;;;;21.50;33.70;;;;;;1534919;76;788;-57
2021/03/02 02:39:27;;;;;;;;;;;21.50;33.80;;;;;;1529996;76;1152;-54
2021/03/02 02:41:29;;;;;;;;;;;21.50;33.70;;;;;;1528242;76;728;-56
2021/03/02 02:43:31;;;;;;;;;;;21.50;33.70;;;;;;1529115;76;748;-58
2021/03/02 02:45:33;;;;;;;;;;;21.40;33.50;;;;;;1532137;76;797;-58
2021/03/02 02:47:35;;;;;;;;;;;21.50;33.70;;;;;;1529918;76;1943;-57
2021/03/02 02:49:37;;;;;;;;;;;21.50;33.60;;;;;;1530068;76;1144;-57
2021/03/02 02:51:39;;;;;;;;;;;21.50;33.60;;;;;;1533384;76;699;-58
2021/03/02 02:53:41;;;;;;;;;;;21.50;33.60;;;;;;1532996;76;747;-57
2021/03/02 02:55:46;;;;;;;;;;;21.50;33.60;;;;;;1543455;76;955;-56
2021/03/02 02:57:49;;;;;;;;;;;21.50;33.50;;;;;;1531993;76;763;-57
2021/03/02 02:59:51;;;;;;;;;;;21.50;33.50;;;;;;1528739;76;1140;-55
2021/03/02 03:01:53;;;;;;;;;;;21.40;33.40;;;;;;1529738;76;745;-57
2021/03/02 03:03:55;;;;;;;;;;;21.50;33.60;;;;;;1522990;76;753;-57
2021/03/02 03:05:57;;;;;;;;;;;21.50;33.70;;;;;;1528746;76;729;-56
2021/03/02 03:08:04;;;;;;;;;;;21.50;33.70;;;;;;1528288;76;1932;-58
2021/03/02 03:10:06;;;;;;;;;;;21.50;33.70;;;;;;1528413;76;1146;-57
2021/03/02 03:12:09;;;;;;;;;;;21.50;33.60;;;;;;1533196;76;752;-57
2021/03/02 03:14:12;;;;;;;;;;;21.50;33.60;;;;;;1523402;76;632;-56
2021/03/02 03:16:14;;;;;;;;;;;21.50;33.50;;;;;;1531972;76;801;-54
2021/03/02 03:18:16;;;;;;;;;;;21.50;33.60;;;;;;1535611;76;795;-54
2021/03/02 03:20:18;;;;;;;;;;;21.60;33.90;;;;;;1533193;76;1156;-57
2021/03/02 03:22:20;;;;;;;;;;;21.50;34.00;;;;;;1510433;76;728;-55
2021/03/02 03:24:22;;;;;;;;;;;21.50;33.90;;;;;;1526132;76;616;-54
2021/03/02 03:26:24;;;;;;;;;;;21.40;33.80;;;;;;1530948;76;759;-55
2021/03/02 03:28:26;;;;;;;;;;;21.50;34.00;;;;;;1514495;76;1915;-57
2021/03/02 03:30:28;;;;;;;;;;;21.40;33.80;;;;;;1528685;76;1130;-54
2021/03/02 03:32:31;;;;;;;;;;;21.40;33.90;;;;;;1533164;76;723;-54
2021/03/02 03:34:32;;;;;;;;;;;21.40;33.70;;;;;;1527699;76;842;-55
2021/03/02 03:36:35;;;;;;;;;;;21.30;33.80;;;;;;1534328;76;724;-57
2021/03/02 03:38:36;;;;;;;;;;;21.40;34.10;;;;;;1533000;76;779;-57
2021/03/02 03:40:38;;;;;;;;;;;21.40;34.10;;;;;;1533243;76;1106;-57
2021/03/02 03:42:40;;;;;;;;;;;21.40;34.00;;;;;;1532281;76;805;-57
2021/03/02 03:44:42;;;;;;;;;;;21.40;34.00;;;;;;1524367;76;730;-56
2021/03/02 03:46:44;;;;;;;;;;;21.40;34.10;;;;;;1522782;76;797;-57
2021/03/02 03:48:46;;;;;;;;;;;21.40;34.00;;;;;;1532854;76;1943;-57
2021/03/02 03:50:48;;;;;;;;;;;21.30;34.10;;;;;;1524653;76;1141;-57
2021/03/02 03:52:51;;;;;;;;;;;21.30;34.20;;;;;;1525180;76;784;-55
2021/03/02 03:54:53;;;;;;;;;;;21.30;34.10;;;;;;1513035;76;787;-58
2021/03/02 03:56:55;;;;;;;;;;;21.30;34.10;;;;;;1522226;77;862;-57
2021/03/02 03:58:57;;;;;;;;;;;21.30;34.10;;;;;;1527826;76;1140;-57
2021/03/02 04:01:01;;;;;;;;;;;21.30;34.10;;;;;;1532350;76;703;-59
2021/03/02 04:03:03;;;;;;;;;;;21.30;34.20;;;;;;1524303;76;1802;-58
2021/03/02 04:05:05;;;;;;;;;;;21.30;34.20;;;;;;1530644;76;731;-58
2021/03/02 04:07:07;;;;;;;;;;;21.30;34.20;;;;;;1529944;72;217585;-67
2021/03/02 04:09:09;;;;;;;;;;;21.30;34.40;;;;;;1533937;76;1949;-68
2021/03/02 04:11:11;;;;;;;;;;;21.30;34.50;;;;;;1525426;76;669;-70
2021/03/02 04:13:13;;;;;;;;;;;21.30;34.40;;;;;;1508246;77;728;-69
2021/03/02 04:15:18;;;;;;;;;;;21.30;34.30;;;;;;1517572;76;744;-69
2021/03/02 04:17:20;;;;;;;;;;;21.30;34.20;;;;;;1499627;77;1161;-69
2021/03/02 04:19:22;;;;;;;;;;;21.30;34.30;;;;;;1501799;78;810;-66
2021/03/02 04:21:24;;;;;;;;;;;21.30;34.30;;;;;;1497757;78;701;-68
2021/03/02 04:23:26;;;;;;;;;;;21.30;34.20;;;;;;1498368;78;822;-69
2021/03/02 04:25:28;;;;;;;;;;;21.20;34.10;;;;;;1505467;78;794;-70
2021/03/02 04:27:29;;;;;;;;;;;21.30;34.20;;;;;;1488303;77;1120;-69
2021/03/02 04:29:31;;;;;;;;;;;21.30;34.20;;;;;;1496083;78;1942;-67
2021/03/02 04:31:33;;;;;;;;;;;21.30;34.20;;;;;;1501856;78;759;-69
2021/03/02 04:33:36;;;;;;;;;;;21.30;34.30;;;;;;1488557;78;734;-69
2021/03/02 04:35:37;;;;;;;;;;;21.30;34.10;;;;;;1492307;78;802;-69
2021/03/02 04:37:39;;;;;;;;;;;21.30;34.20;;;;;;1511616;77;1078;-69
2021/03/02 04:39:41;;;;;;;;;;;21.30;34.20;;;;;;1504963;78;776;-69
2021/03/02 04:41:43;;;;;;;;;;;21.30;34.20;;;;;;1500498;78;739;-68
2021/03/02 04:43:45;;;;;;;;;;;21.30;34.50;;;;;;1494461;78;657;-68
2021/03/02 04:45:47;;;;;;;;;;;21.30;34.30;;;;;;1509158;78;1126;-65
2021/03/02 04:47:49;;;;;;;;;;;21.30;34.30;;;;;;1497965;78;807;-67
2021/03/02 04:49:51;;;;;;;;;;;21.30;34.20;;;;;;1497868;78;1938;-68
2021/03/02 04:51:52;;;;;;;;;;;21.30;34.60;;;;;;1495667;78;765;-68
2021/03/02 04:53:54;;;;;;;;;;;21.30;34.40;;;;;;1509934;78;730;-68
2021/03/02 04:55:56;;;;;;;;;;;21.30;34.30;;;;;;1479576;78;1126;-68
2021/03/02 04:57:58;;;;;;;;;;;21.40;34.30;;;;;;1497527;78;704;-68
2021/03/02 05:00:00;;;;;;;;;;;21.40;34.40;;;;;;1504708;78;791;-69
2021/03/02 05:02:02;;;;;;;;;;;21.30;34.40;;;;;;1498750;78;662;-68
2021/03/02 05:04:04;;;;;;;;;;;21.40;34.50;;;;;;1503462;78;761;-68
2021/03/02 05:06:06;;;;;;;;;;;21.30;34.50;;;;;;1496390;78;1150;-69
2021/03/02 05:08:08;;;;;;;;;;;21.40;34.50;;;;;;1505458;78;790;-69
2021/03/02 05:10:10;;;;;;;;;;;21.30;34.80;;;;;;1495099;78;1950;-70
2021/03/02 05:12:12;;;;;;;;;;;21.30;34.80;;;;;;1491414;78;756;-69
2021/03/02 05:14:14;;;;;;;;;;;21.40;34.50;;;;;;1484693;78;813;-70
2021/03/02 05:16:35;;;;;;;;;;;21.30;34.40;;;;;;1489515;78;1095;-69
2021/03/02 05:18:37;;;;;;;;;;;21.10;34.40;;;;;;1541876;75;562;-58
2021/03/02 05:20:39;;;;;;;;;;;21.30;34.40;;;;;;1532426;75;1169;-59
2021/03/02 05:22:41;;;;;;;;;;;21.40;34.50;;;;;;1543682;75;790;-55
2021/03/02 05:24:43;;;;;;;;;;;21.30;34.60;;;;;;1520685;75;818;-57
2021/03/02 05:26:45;;;;;;;;;;;21.30;34.50;;;;;;1520136;75;747;-58
2021/03/02 05:28:46;;;;;;;;;;;21.30;34.60;;;;;;1523564;75;1959;-59
2021/03/02 05:30:48;;;;;;;;;;;21.30;34.40;;;;;;1520283;75;1177;-58
2021/03/02 05:32:50;;;;;;;;;;;21.30;34.40;;;;;;1529288;75;769;-59
2021/03/02 05:34:52;;;;;;;;;;;21.30;34.50;;;;;;1528932;75;675;-57
2021/03/02 05:36:54;;;;;;;;;;;21.30;34.40;;;;;;1527873;75;754;-56
2021/03/02 05:38:56;;;;;;;;;;;21.30;34.30;;;;;;1526646;75;1164;-55
2021/03/02 05:40:58;;;;;;;;;;;21.30;34.30;;;;;;1529131;75;727;-56
2021/03/02 05:43:00;;;;;;;;;;;21.30;34.20;;;;;;1534988;75;753;-56
2021/03/02 05:45:03;;;;;;;;;;;21.30;34.20;;;;;;1533479;75;716;-59
2021/03/02 05:47:05;;;;;;;;;;;21.30;34.20;;;;;;1529146;75;709;-57
2021/03/02 05:49:07;;;;;;;;;;;21.20;34.20;;;;;;1534138;75;1941;-55
2021/03/02 05:51:09;;;;;;;;;;;21.20;34.20;;;;;;1537641;75;687;-56
2021/03/02 05:53:11;;;;;;;;;;;21.20;34.10;;;;;;1534967;75;771;-58
2021/03/02 05:55:13;;;;;;;;;;;21.20;34.10;;;;;;1533196;75;721;-58
2021/03/02 05:57:14;;;;;;;;;;;21.30;34.30;;;;;;1537463;75;738;-58
2021/03/02 05:59:17;;;;;;;;;;;21.30;34.40;;;;;;1528983;75;1128;-57
2021/03/02 06:01:19;;;;;;;;;;;21.30;34.40;;;;;;1524730;75;745;-57
2021/03/02 06:03:21;;;;;;;;;;;21.30;34.40;;;;;;1538034;75;739;-58
2021/03/02 06:05:23;;;;;;;;;;;21.40;34.40;;;;;;1544907;75;855;-58
2021/03/02 06:07:25;;;;;;;;;;;21.30;34.30;;;;;;1526922;75;717;-57
2021/03/02 06:09:27;;;;;;;;;;;21.30;34.30;;;;;;1538665;75;1936;-57
2021/03/02 06:11:32;;;;;;;;;;;21.40;34.60;;;;;;1548741;75;674;-57
2021/03/02 06:13:34;;;;;;;;;;;21.30;34.50;;;;;;1531925;75;830;-54
2021/03/02 06:15:36;;;;;;;;;;;21.30;34.60;;;;;;1526107;75;735;-56
2021/03/02 06:17:38;;;;;;;;;;;21.30;34.60;;;;;;1505885;77;1187;-58
2021/03/02 06:19:40;;;;;;;;;;;21.30;34.50;;;;;;1526222;75;1128;-57
2021/03/02 06:21:42;;;;;;;;;;;21.30;34.40;;;;;;1517923;75;751;-58
2021/03/02 06:23:49;;;;;;;;;;;21.30;34.30;;;;;;1519556;75;756;-58
2021/03/02 06:25:51;;;;;;;;;;;21.30;34.40;;;;;;1528020;75;1632;-53
2021/03/02 06:27:53;;;;;;;;;;;21.20;34.40;;;;;;1519158;75;743;-55
2021/03/02 06:30:08;;;;;;;;;;;21.30;34.40;;;;;;1528428;75;1965;-57
2021/03/02 06:32:10;;;;;;;;;;;21.30;34.40;;;;;;1532027;75;1770;-58
2021/03/02 06:34:21;;;;;;;;;;;21.20;34.50;;;;;;1533216;75;718;-58
2021/03/02 06:36:23;;;;;;;;;;;21.20;34.50;;;;;;1526279;75;709;-57
2021/03/02 06:38:29;;;;;;;;;;;21.20;34.70;;;;;;1527531;75;785;-58
2021/03/02 06:40:32;;;;;;;;;;;21.10;34.70;;;;;;1521988;75;1110;-58
2021/03/02 06:42:39;;;;;;;;;;;21.10;34.50;;;;;;1519948;75;1630;-58
2021/03/02 06:44:41;;;;;;;;;;;21.20;34.30;;;;;;1523611;75;1796;-58
2021/03/02 06:46:43;;;;;;;;;;;21.30;34.30;;;;;;1526324;75;706;-59
2021/03/02 06:48:56;;;;;;;;;;;21.20;34.00;;;;;;1540124;75;716;-58
2021/03/02 06:50:58;;;;;;;;;;;21.30;34.20;;;;;;1529596;75;751;-58
2021/03/02 06:53:00;;;;;;;;;;;21.30;34.10;;;;;;1522575;75;803;-58
2021/03/02 06:55:03;;;;;;;;;;;21.30;34.10;;;;;;1503960;77;865;-58
2021/03/02 06:57:05;;;;;;;;;;;21.30;34.10;;;;;;1523803;75;780;-55
2021/03/02 06:59:13;;;;;;;;;;;21.30;34.00;;;;;;1531041;75;1109;-56
2021/03/02 07:01:15;;;;;;;;;;;21.30;34.10;;;;;;1529373;75;863;-54
2021/03/02 07:03:21;;;;;;;;;;;21.30;34.10;;;;;;1523041;75;754;-55
2021/03/02 07:05:22;;;;;;;;;;;21.30;34.00;;;;;;1527069;75;732;-55
2021/03/02 07:07:25;;;;;;;;;;;21.30;34.00;;;;;;1548166;75;764;-56
2021/03/02 07:09:27;;;;;;;;;;;21.20;33.80;;;;;;1527685;75;1937;-57
2021/03/02 07:11:29;;;;;;;;;;;21.30;33.90;;;;;;1522697;75;979;-57
2021/03/02 07:13:32;;;;;;;;;;;21.20;33.70;;;;;;1543789;75;672;-57
2021/03/02 07:15:36;;;;;;;;;;;21.20;33.70;;;;;;1533847;75;739;-57
2021/03/02 07:17:38;;;;;;;;;;;21.20;33.90;;;;;;1534446;75;1715;-57
2021/03/02 07:19:40;;;;;;;;;;;21.30;33.90;;;;;;1515585;75;1154;-58
2021/03/02 07:21:41;;;;;;;;;;;21.20;33.90;;;;;;1531414;75;941;-58
2021/03/02 07:23:43;;;;;;;;;;;21.30;34.00;;;;;;1538409;75;754;-58
2021/03/02 07:25:45;;;;;;;;;;;21.20;33.90;;;;;;1537416;75;723;-56
2021/03/02 07:27:52;;;;;;;;;;;21.20;33.90;;;;;;1536323;75;768;-58
2021/03/02 07:29:54;;;;;;;;;;;21.30;33.90;;;;;;1529702;75;1948;-58
2021/03/02 07:31:56;;;;;;;;;;;21.30;33.90;;;;;;1523156;75;784;-56
2021/03/02 07:33:59;;;;;;;;;;;21.30;33.90;;;;;;1538549;75;689;-58
2021/03/02 07:36:01;;;;;;;;;;;21.30;33.80;;;;;;1525041;75;683;-58
2021/03/02 07:38:13;;;;;;;;;;;21.20;33.60;;;;;;1526964;75;778;-58
2021/03/02 07:40:16;;;;;;;;;;;21.20;33.60;;;;;;1528572;75;1752;-54
2021/03/02 07:42:24;;;;;;;;;;;21.30;33.70;;;;;;1541486;75;762;-57
2021/03/02 07:44:26;;;;;;;;;;;21.20;33.60;;;;;;1531370;75;692;-54
2021/03/02 07:46:32;;;;;;;;;;;21.20;33.60;;;;;;1528889;75;642;-56
2021/03/02 07:48:38;;;;;;;;;;;21.20;33.60;;;;;;1530581;75;802;-55
2021/03/02 07:50:39;;;;;;;;;;;21.30;33.70;;;;;;1520496;75;1925;-59
2021/03/02 07:52:41;;;;;;;;;;;21.30;33.80;;;;;;1535192;75;882;-58
2021/03/02 07:54:45;;;;;;;;;;;21.30;33.90;;;;;;1532412;75;722;-56
2021/03/02 07:56:47;;;;;;;;;;;21.30;34.10;;;;;;1544596;75;753;-56
2021/03/02 07:59:05;;;;;;;;;;;21.30;34.00;;;;;;1544677;75;830;-55
2021/03/02 08:01:18;;;;;;;;;;;21.30;34.20;;;;;;1540869;75;644;-59
2021/03/02 08:03:20;;;;;;;;;;;21.20;34.40;;;;;;1531037;75;1063;-57
2021/03/02 08:05:29;;;;;;;;;;;21.10;34.10;;;;;;1524718;75;752;-55
2021/03/02 08:07:30;;;;;;;;;;;21.10;34.00;;;;;;1528982;75;731;-58
2021/03/02 08:09:32;;;;;;;;;;;21.10;33.80;;;;;;1535809;75;1944;-59
2021/03/02 08:11:35;;;;;;;;;;;21.10;33.60;;;;;;1534543;75;788;-60
2021/03/02 08:13:37;;;;;;;;;;;21.20;33.40;;;;;;1529349;75;688;-59
2021/03/02 08:15:39;;;;;;;;;;;21.20;33.20;;;;;;1530896;75;726;-59
2021/03/02 08:17:41;;;;;;;;;;;21.30;33.30;;;;;;1531129;75;754;-59
2021/03/02 08:19:49;;;;;;;;;;;21.30;33.10;;;;;;1534466;75;1145;-59
2021/03/02 08:21:51;;;;;;;;;;;21.30;33.10;;;;;;1530933;75;679;-58
2021/03/02 08:23:54;;;;;;;;;;;21.20;33.00;;;;;;1527201;75;751;-55
2021/03/02 08:25:58;;;;;;;;;;;21.20;33.00;;;;;;1525151;75;841;-57
2021/03/02 08:28:00;;;;;;;;;;;21.20;33.10;;;;;;1525357;75;1511;-60
2021/03/02 08:30:03;;;;;;;;;;;21.30;33.20;;;;;;1523734;75;1916;-57
2021/03/02 08:32:05;;;;;;;;;;;21.20;33.10;;;;;;1525794;75;787;-59
2021/03/02 08:34:08;;;;;;;;;;;21.20;33.20;;;;;;1523419;75;709;-58
2021/03/02 08:36:11;;;;;;;;;;;21.30;33.50;;;;;;1533026;75;664;-59
2021/03/02 08:38:13;;;;;;;;;;;21.20;33.40;;;;;;1512669;77;1193;-59
2021/03/02 08:40:16;;;;;;;;;;;21.30;33.40;;;;;;1532080;75;1100;-56
2021/03/02 08:42:18;;;;;;;;;;;21.30;33.40;;;;;;1526918;75;768;-59
2021/03/02 08:44:20;;;;;;;;;;;21.40;33.20;;;;;;1529952;75;725;-59
2021/03/02 08:46:30;;;;;;;;;;;21.30;33.20;;;;;;1538215;75;738;-58
2021/03/02 08:48:34;;;;;;;;;;;21.30;33.20;;;;;;1521753;75;761;-57
2021/03/02 08:50:36;;;;;;;;;;;21.40;33.10;;;;;;1524769;75;1957;-59
2021/03/02 08:52:41;;;;;;;;;;;21.30;33.10;;;;;;1525557;75;667;-57
2021/03/02 08:54:47;;;;;;;;;;;21.30;33.10;;;;;;1531504;75;719;-56
2021/03/02 08:56:49;;;;;;;;;;;21.30;33.20;;;;;;1521035;75;724;-59
2021/03/02 08:58:52;;;;;;;;;;;21.30;33.30;;;;;;1513501;77;1347;-60
2021/03/02 09:00:58;;;;;;;;;;;21.30;33.30;;;;;;1525618;75;772;-60
2021/03/02 09:03:00;;;;;;;;;;;21.30;33.40;;;;;;1520028;75;678;-59
2021/03/02 09:05:02;;;;;;;;;;;21.30;33.40;;;;;;1527752;75;722;-59
2021/03/02 09:07:04;;;;;;;;;;;21.30;33.30;;;;;;1539218;75;772;-60
2021/03/02 09:09:06;;;;;;;;;;;21.30;33.50;;;;;;1521096;75;1135;-60
2021/03/02 09:11:08;;;;;;;;;;;21.30;33.50;;;;;;1522677;75;1917;-59
2021/03/02 09:13:10;;;;;;;;;;;21.30;33.40;;;;;;1520969;75;714;-60
2021/03/02 09:15:12;;;;;;;;;;;21.30;33.50;;;;;;1523014;75;723;-60
2021/03/02 09:17:15;;;;;;;;;;;21.30;33.40;;;;;;1526528;75;687;-59
2021/03/02 09:19:26;;;;;;;;;;;21.30;33.40;;;;;;1520241;75;1097;-56
2021/03/02 09:21:29;;;;;;;;;;;21.30;33.50;;;;;;1527647;75;725;-58
2021/03/02 09:23:31;;;;;;;;;;;21.20;33.60;;;;;;1529193;75;747;-58
2021/03/02 09:25:34;;;;;;;;;;;21.20;33.90;;;;;;1522796;75;698;-59
2021/03/02 09:27:38;;;;;;;;;;;21.30;33.90;;;;;;1522072;75;720;-56
2021/03/02 09:29:41;;;;;;;;;;;21.30;33.90;;;;;;1532488;75;1103;-59
2021/03/02 09:31:43;;;;;;;;;;;21.30;34.00;;;;;;1523102;75;1913;-60
2021/03/02 09:33:45;;;;;;;;;;;21.20;34.70;;;;;;1528731;75;794;-59
2021/03/02 09:35:46;;;;;;;;;;;21.20;34.60;;;;;;1539657;75;796;-57
2021/03/02 09:37:48;;;;;;;;;;;21.20;34.60;;;;;;1536748;75;743;-56
2021/03/02 09:40:04;;;;;;;;;;;21.20;34.40;;;;;;1535263;75;1197;-60
2021/03/02 09:42:19;;;;;;;;;;;21.30;34.30;;;;;;1528942;75;931;-56
2021/03/02 09:44:23;;;;;;;;;;;21.20;34.20;;;;;;1533162;75;772;-57
2021/03/02 09:46:26;;;;;;;;;;;21.30;34.30;;;;;;1544097;75;717;-57
2021/03/02 09:48:28;;;;;;;;;;;21.30;34.40;;;;;;1532635;75;1866;-58
2021/03/02 09:50:34;;;;;;;;;;;21.40;34.40;;;;;;1521855;75;1942;-57
2021/03/02 09:52:38;;;;;;;;;;;21.40;34.30;;;;;;1519717;75;1622;-58
2021/03/02 09:54:40;;;;;;;;;;;21.40;34.30;;;;;;1519319;75;1635;-57
2021/03/02 09:56:49;;;;;;;;;;;21.50;34.40;;;;;;1515678;75;704;-56
2021/03/02 09:58:51;;;;;;;;;;;21.40;34.40;;;;;;1519734;75;1743;-57
2021/03/02 10:00:54;;;;;;;;;;;21.40;34.40;;;;;;1518884;75;754;-60
2021/03/02 10:02:57;;;;;;;;;;;21.50;34.50;;;;;;1525659;75;773;-57
2021/03/02 10:05:02;;;;;;;;;;;21.50;34.50;;;;;;1520376;75;730;-60
2021/03/02 10:07:10;;;;;;;;;;;21.50;34.40;;;;;;1512659;72;2079;-57
2021/03/02 10:09:14;;;;;;;;;;;21.40;34.50;;;;;;1501041;77;1205;-57
2021/03/02 10:11:18;;;;;;;;;;;21.50;34.50;;;;;;1499244;77;1947;-57
2021/03/02 10:13:24;;;;;;;;;;;21.50;34.30;;;;;;1500815;77;691;-58
2021/03/02 10:15:26;;;;;;;;;;;21.50;34.40;;;;;;1503869;77;1032;-58
2021/03/02 10:17:35;;;;;;;;;;;21.50;34.40;;;;;;1502274;77;716;-58
2021/03/02 10:19:36;;;;;;;;;;;21.40;34.40;;;;;;1505476;77;1155;-58
2021/03/02 10:21:46;;;;;;;;;;;21.50;34.50;;;;;;1505966;77;756;-56
2021/03/02 10:23:49;;;;;;;;;;;21.50;34.50;;;;;;1502264;77;763;-58
2021/03/02 10:25:51;;;;;;;;;;;21.50;34.50;;;;;;1499100;77;767;-58
2021/03/02 10:27:56;;;;;;;;;;;21.50;34.40;;;;;;1467234;79;1120;-57
2021/03/02 10:29:59;;;;;;;;;;;21.50;34.60;;;;;;1496712;77;1181;-58
2021/03/02 10:32:03;;;;;;;;;;;21.60;34.50;;;;;;1487476;77;1919;-57
2021/03/02 10:34:05;;;;;;;;;;;21.50;34.60;;;;;;1497013;77;756;-57
2021/03/02 10:36:09;;;;;;;;;;;21.50;34.50;;;;;;1502390;77;793;-58
2021/03/02 10:38:10;;;;;;;;;;;21.50;34.60;;;;;;1499206;77;1807;-56
2021/03/02 10:40:13;;;;;;;;;;;21.50;34.50;;;;;;1502714;77;1114;-57
2021/03/02 10:42:16;;;;;;;;;;;21.50;34.60;;;;;;1504859;77;781;-56
2021/03/02 10:44:18;;;;;;;;;;;21.60;34.50;;;;;;1499407;77;715;-58
2021/03/02 10:46:20;;;;;;;;;;;21.60;34.50;;;;;;1505586;77;797;-58
2021/03/02 10:48:22;;;;;;;;;;;21.60;34.70;;;;;;1497776;77;905;-57
2021/03/02 10:50:24;;;;;;;;;;;21.50;34.60;;;;;;1503094;77;1953;-58
2021/03/02 10:52:26;;;;;;;;;;;21.60;34.60;;;;;;1499659;77;929;-58
2021/03/02 10:54:29;;;;;;;;;;;21.60;34.50;;;;;;1505044;77;681;-58
2021/03/02 10:56:31;;;;;;;;;;;21.60;34.50;;;;;;1500019;77;712;-59
2021/03/02 10:58:33;;;;;;;;;;;21.60;34.40;;;;;;1501195;77;807;-59
2021/03/02 11:00:35;;;;;;;;;;;21.70;34.40;;;;;;1501325;77;1112;-58
2021/03/02 11:02:37;;;;;;;;;;;21.70;34.40;;;;;;1506230;77;835;-58
2021/03/02 11:04:39;;;;;;;;;;;21.60;34.30;;;;;;1505226;77;743;-57
2021/03/02 11:06:40;;;;;;;;;;;21.60;34.30;;;;;;1492353;77;764;-58
2021/03/02 11:08:44;;;;;;;;;;;21.60;34.50;;;;;;1510276;77;725;-57
2021/03/02 11:10:46;;;;;;;;;;;21.60;34.50;;;;;;1504671;77;1938;-56
2021/03/02 11:12:48;;;;;;;;;;;21.70;34.40;;;;;;1503494;77;733;-59
2021/03/02 11:14:50;;;;;;;;;;;21.70;34.40;;;;;;1504503;77;745;-58
2021/03/02 11:16:52;;;;;;;;;;;21.70;34.50;;;;;;1502381;77;757;-58
2021/03/02 11:18:54;;;;;;;;;;;21.60;34.50;;;;;;1493015;77;1169;-58
2021/03/02 11:20:56;;;;;;;;;;;21.60;34.50;;;;;;1500809;77;704;-58
2021/03/02 11:22:58;;;;;;;;;;;21.60;34.50;;;;;;1503659;77;755;-58
2021/03/02 11:25:00;;;;;;;;;;;21.70;34.50;;;;;;1500779;77;679;-59
2021/03/02 11:27:01;;;;;;;;;;;21.60;34.40;;;;;;1503910;77;836;-57
2021/03/02 11:29:03;;;;;;;;;;;21.70;34.60;;;;;;1505728;77;1138;-58
2021/03/02 11:31:05;;;;;;;;;;;21.60;34.70;;;;;;1504627;77;1945;-59
2021/03/02 11:33:07;;;;;;;;;;;21.60;34.80;;;;;;1505069;77;712;-58
2021/03/02 11:35:09;;;;;;;;;;;21.70;34.80;;;;;;1505054;77;895;-56
2021/03/02 11:37:11;;;;;;;;;;;21.70;34.80;;;;;;1503765;77;819;-58
2021/03/02 11:39:13;;;;;;;;;;;21.70;34.70;;;;;;1504092;77;1183;-59
2021/03/02 11:41:15;;;;;;;;;;;21.70;34.70;;;;;;1502226;77;730;-58
2021/03/02 11:43:17;;;;;;;;;;;21.60;35.00;;;;;;1502520;77;698;-58
2021/03/02 11:45:20;;;;;;;;;;;21.60;35.20;;;;;;1502109;79;668;-58
2021/03/02 11:47:21;;;;;;;;;;;21.60;35.10;;;;;;1499588;77;786;-57
2021/03/02 11:49:24;;;;;;;;;;;21.70;35.00;;;;;;1507505;77;1118;-56
2021/03/02 11:51:25;;;;;;;;;;;21.70;35.00;;;;;;1503082;77;1941;-57
2021/03/02 11:53:27;;;;;;;;;;;21.70;35.00;;;;;;1503276;77;874;-58
2021/03/02 11:55:29;;;;;;;;;;;21.70;34.90;;;;;;1500156;77;788;-56
2021/03/02 11:57:31;;;;;;;;;;;21.70;34.90;;;;;;1504993;77;755;-56
2021/03/02 11:59:33;;;;;;;;;;;21.80;34.80;;;;;;1504926;77;1080;-58
2021/03/02 12:01:35;;;;;;;;;;;21.80;34.70;;;;;;1502394;77;1057;-58
2021/03/02 12:03:37;;;;;;;;;;;21.70;34.70;;;;;;1506749;77;760;-58
2021/03/02 12:05:39;;;;;;;;;;;21.70;34.70;;;;;;1504718;77;810;-59
2021/03/02 12:07:41;;;;;;;;;;;21.80;34.60;;;;;;1503927;77;772;-57
2021/03/02 12:09:43;;;;;;;;;;;21.80;34.60;;;;;;1503588;77;1259;-58
2021/03/02 12:11:46;;;;;;;;;;;21.80;34.60;;;;;;1503858;77;1937;-58
2021/03/02 12:13:48;;;;;;;;;;;21.80;34.50;;;;;;1504252;77;813;-58